Time,TemperatureF,DewpointF,PressureIn,WindDirection,WindDirectionDegrees,WindSpeedMPH,WindSpeedGustMPH,Humidity,HourlyPrecipIn,Conditions,Clouds,dailyrainin,SoftwareType,DateUTC
2013-05-03 00:00:00,47.9,34.3,30.45,NNE,21,0.0,0.0,59,0.00,,,0.00,VWS V14.00,2013-05-03 04:00:00,
2013-05-03 00:01:00,47.9,34.3,30.45,North,1,0.0,0.0,59,0.00,,,0.00,VWS V14.00,2013-05-03 04:01:00,
2013-05-03 00:06:00,47.7,34.1,30.45,NNE,31,3.6,5.4,59,0.00,,,0.00,VWS V14.00,2013-05-03 04:06:00,
2013-05-03 00:11:00,47.6,34.0,30.45,NE,34,2.7,2.7,59,0.00,,,0.00,VWS V14.00,2013-05-03 04:11:00,
2013-05-03 00:16:00,47.6,34.4,30.45,North,349,2.2,2.2,60,0.00,,,0.00,VWS V14.00,2013-05-03 04:16:00,
2013-05-03 00:21:00,47.4,33.8,30.45,North,359,0.0,0.0,59,0.00,,,0.00,VWS V14.00,2013-05-03 04:21:00,
2013-05-03 00:26:00,47.2,34.0,30.45,North,359,0.0,0.0,60,0.00,,,0.00,VWS V14.00,2013-05-03 04:26:00,
2013-05-03 00:31:00,47.0,33.9,30.45,North,359,0.0,0.0,60,0.00,,,0.00,VWS V14.00,2013-05-03 04:31:00,
2013-05-03 00:36:00,46.8,33.7,30.45,NNE,13,0.0,0.0,60,0.00,,,0.00,VWS V14.00,2013-05-03 04:36:00,
2013-05-03 00:41:00,46.8,33.7,30.45,NNE,21,0.0,2.7,60,0.00,,,0.00,VWS V14.00,2013-05-03 04:41:00,
2013-05-03 00:46:00,46.7,33.5,30.45,NNE,24,0.0,0.0,60,0.00,,,0.00,VWS V14.00,2013-05-03 04:46:00,
2013-05-03 00:51:00,46.5,33.4,30.45,NNE,17,2.2,3.6,60,0.00,,,0.00,VWS V14.00,2013-05-03 04:51:00,
2013-05-03 00:56:00,46.5,33.4,30.45,NNE,31,2.7,2.7,60,0.00,,,0.00,VWS V14.00,2013-05-03 04:56:00,
2013-05-03 01:01:00,46.3,33.6,30.45,NNE,31,0.0,0.0,61,0.00,,,0.00,VWS V14.00,2013-05-03 05:01:00,
2013-05-03 01:06:00,46.3,33.6,30.45,North,7,0.0,0.0,61,0.00,,,0.00,VWS V14.00,2013-05-03 05:06:00,
2013-05-03 01:11:00,46.3,33.6,30.42,North,354,3.1,3.1,61,0.00,,,0.00,VWS V14.00,2013-05-03 05:11:00,
2013-05-03 01:16:00,46.1,33.4,30.42,North,354,0.0,0.0,61,0.00,,,0.00,VWS V14.00,2013-05-03 05:16:00,
2013-05-03 01:21:00,46.1,33.4,30.42,North,354,0.0,0.0,61,0.00,,,0.00,VWS V14.00,2013-05-03 05:21:00,
2013-05-03 01:26:00,45.9,33.3,30.42,North,354,0.0,0.0,61,0.00,,,0.00,VWS V14.00,2013-05-03 05:26:00,
2013-05-03 01:31:00,45.9,33.3,30.42,North,354,0.0,0.0,61,0.00,,,0.00,VWS V14.00,2013-05-03 05:31:00,
2013-05-03 01:36:00,45.9,33.3,30.42,North,353,0.0,0.0,61,0.00,,,0.00,VWS V14.00,2013-05-03 05:36:00,
2013-05-03 01:41:00,45.8,33.1,30.42,NNW,339,2.7,2.7,61,0.00,,,0.00,VWS V14.00,2013-05-03 05:41:00,
2013-05-03 01:46:00,45.8,33.5,30.42,NNW,339,2.7,2.7,62,0.00,,,0.00,VWS V14.00,2013-05-03 05:46:00,
2013-05-03 01:51:00,45.8,33.5,30.42,NNW,339,0.0,0.0,62,0.00,,,0.00,VWS V14.00,2013-05-03 05:51:00,
2013-05-03 01:56:00,45.8,33.5,30.42,NNW,346,2.7,2.7,62,0.00,,,0.00,VWS V14.00,2013-05-03 05:56:00,
2013-05-03 02:01:00,45.6,33.3,30.42,North,5,2.7,2.7,62,0.00,,,0.00,VWS V14.00,2013-05-03 06:01:00,
2013-05-03 02:06:00,45.6,33.3,30.42,NNW,332,0.0,0.0,62,0.00,,,0.00,VWS V14.00,2013-05-03 06:06:00,
2013-05-03 02:11:00,45.4,33.2,30.42,NNW,332,0.0,0.0,62,0.00,,,0.00,VWS V14.00,2013-05-03 06:11:00,
2013-05-03 02:16:00,45.4,33.2,30.42,NNW,332,0.0,0.0,62,0.00,,,0.00,VWS V14.00,2013-05-03 06:16:00,
2013-05-03 02:21:00,45.2,33.4,30.42,NNW,332,0.0,0.0,63,0.00,,,0.00,VWS V14.00,2013-05-03 06:21:00,
2013-05-03 02:26:00,45.2,33.4,30.42,NNW,345,0.0,0.0,63,0.00,,,0.00,VWS V14.00,2013-05-03 06:26:00,
2013-05-03 02:31:00,45.2,33.4,30.42,NNW,345,0.0,2.2,63,0.00,,,0.00,VWS V14.00,2013-05-03 06:31:00,
2013-05-03 02:36:00,45.0,33.2,30.42,NW,323,0.0,0.0,63,0.00,,,0.00,VWS V14.00,2013-05-03 06:36:00,
2013-05-03 02:41:00,45.0,33.6,30.42,WNW,291,0.0,3.6,64,0.00,,,0.00,VWS V14.00,2013-05-03 06:41:00,
2013-05-03 02:46:00,45.2,34.2,30.42,WNW,296,0.0,0.0,65,0.00,,,0.00,VWS V14.00,2013-05-03 06:46:00,
2013-05-03 02:51:00,45.0,34.0,30.42,North,357,0.0,0.0,65,0.00,,,0.00,VWS V14.00,2013-05-03 06:51:00,
2013-05-03 02:56:00,44.9,33.8,30.42,North,356,2.2,2.2,65,0.00,,,0.00,VWS V14.00,2013-05-03 06:56:00,
2013-05-03 03:01:00,44.7,33.7,30.42,North,356,0.0,2.7,65,0.00,,,0.00,VWS V14.00,2013-05-03 07:01:00,
2013-05-03 03:06:00,44.5,33.5,30.42,North,358,0.0,2.2,65,0.00,,,0.00,VWS V14.00,2013-05-03 07:06:00,
2013-05-03 03:11:00,44.5,33.5,30.42,NNW,341,3.6,3.6,65,0.00,,,0.00,VWS V14.00,2013-05-03 07:11:00,
2013-05-03 03:16:00,44.3,33.3,30.42,North,349,2.7,2.7,65,0.00,,,0.00,VWS V14.00,2013-05-03 07:16:00,
2013-05-03 03:21:00,44.3,33.3,30.42,NNW,343,0.0,0.0,65,0.00,,,0.00,VWS V14.00,2013-05-03 07:21:00,
2013-05-03 03:26:00,44.1,33.1,30.42,NNW,343,0.0,0.0,65,0.00,,,0.00,VWS V14.00,2013-05-03 07:26:00,
2013-05-03 03:31:00,44.1,33.1,30.42,NNW,346,3.1,3.6,65,0.00,,,0.00,VWS V14.00,2013-05-03 07:31:00,
2013-05-03 03:36:00,44.1,33.1,30.42,NNW,346,0.0,0.0,65,0.00,,,0.00,VWS V14.00,2013-05-03 07:36:00,
2013-05-03 03:41:00,44.0,33.3,30.42,NNW,346,2.7,3.6,66,0.00,,,0.00,VWS V14.00,2013-05-03 07:41:00,
2013-05-03 03:46:00,44.0,33.3,30.42,NNW,346,2.7,3.6,66,0.00,,,0.00,VWS V14.00,2013-05-03 07:46:00,
2013-05-03 03:51:00,43.8,32.8,30.42,NNW,346,2.2,2.7,65,0.00,,,0.00,VWS V14.00,2013-05-03 07:51:00,
2013-05-03 03:56:00,43.8,33.2,30.42,NNW,346,2.2,2.7,66,0.00,,,0.00,VWS V14.00,2013-05-03 07:56:00,
2013-05-03 04:01:00,43.8,33.5,30.42,NNW,346,2.7,2.7,67,0.00,,,0.00,VWS V14.00,2013-05-03 08:01:00,
2013-05-03 04:06:00,43.6,33.8,30.42,NNW,346,0.0,0.0,68,0.00,,,0.00,VWS V14.00,2013-05-03 08:06:00,
2013-05-03 04:11:00,43.6,34.1,30.42,NNW,346,0.0,0.0,69,0.00,,,0.00,VWS V14.00,2013-05-03 08:11:00,
2013-05-03 04:16:00,43.6,33.8,30.42,North,353,0.0,0.0,68,0.00,,,0.00,VWS V14.00,2013-05-03 08:16:00,
2013-05-03 04:21:00,43.4,33.6,30.42,North,353,4.0,4.0,68,0.00,,,0.00,VWS V14.00,2013-05-03 08:21:00,
2013-05-03 04:26:00,43.2,33.4,30.42,North,353,2.7,3.1,68,0.00,,,0.00,VWS V14.00,2013-05-03 08:26:00,
2013-05-03 04:31:00,43.2,33.4,30.42,North,352,2.2,3.6,68,0.00,,,0.00,VWS V14.00,2013-05-03 08:31:00,
2013-05-03 04:36:00,43.2,33.4,30.42,North,350,2.2,2.7,68,0.00,,,0.00,VWS V14.00,2013-05-03 08:36:00,
2013-05-03 04:41:00,43.1,34.0,30.42,North,350,2.7,3.1,70,0.00,,,0.00,VWS V14.00,2013-05-03 08:41:00,
2013-05-03 04:46:00,43.1,34.3,30.42,NNW,343,2.7,2.7,71,0.00,,,0.00,VWS V14.00,2013-05-03 08:46:00,
2013-05-03 04:51:00,43.1,34.0,30.42,NNW,342,0.0,0.0,70,0.00,,,0.00,VWS V14.00,2013-05-03 08:51:00,
2013-05-03 04:56:00,43.1,34.3,30.42,North,352,2.7,4.9,71,0.00,,,0.00,VWS V14.00,2013-05-03 08:56:00,
2013-05-03 05:01:00,43.1,34.3,30.42,NNW,341,2.7,3.1,71,0.00,,,0.00,VWS V14.00,2013-05-03 09:01:00,
2013-05-03 05:06:00,42.9,34.1,30.42,North,355,2.2,2.7,71,0.00,,,0.00,VWS V14.00,2013-05-03 09:06:00,
2013-05-03 05:11:00,42.7,33.6,30.42,North,349,2.7,3.6,70,0.00,,,0.00,VWS V14.00,2013-05-03 09:11:00,
2013-05-03 05:16:00,42.5,33.4,30.42,NNW,341,5.4,5.4,70,0.00,,,0.00,VWS V14.00,2013-05-03 09:16:00,
2013-05-03 05:21:00,42.5,33.8,30.42,NNW,348,5.8,5.8,71,0.00,,,0.00,VWS V14.00,2013-05-03 09:21:00,
2013-05-03 05:26:00,42.3,33.6,30.45,North,349,2.2,3.6,71,0.00,,,0.00,VWS V14.00,2013-05-03 09:26:00,
2013-05-03 05:31:00,42.3,33.6,30.45,NNW,347,3.1,3.6,71,0.00,,,0.00,VWS V14.00,2013-05-03 09:31:00,
2013-05-03 05:36:00,42.3,33.6,30.45,NNW,343,4.0,5.4,71,0.00,,,0.00,VWS V14.00,2013-05-03 09:36:00,
2013-05-03 05:41:00,42.3,33.6,30.45,NNW,348,4.9,4.9,71,0.00,,,0.00,VWS V14.00,2013-05-03 09:41:00,
2013-05-03 05:46:00,42.3,33.6,30.45,NNW,344,3.1,4.0,71,0.00,,,0.00,VWS V14.00,2013-05-03 09:46:00,
2013-05-03 05:51:00,42.3,33.6,30.45,NNW,347,5.8,5.8,71,0.00,,,0.00,VWS V14.00,2013-05-03 09:51:00,
2013-05-03 05:56:00,42.3,33.6,30.45,North,350,3.1,5.4,71,0.00,,,0.00,VWS V14.00,2013-05-03 09:56:00,
2013-05-03 06:01:00,42.3,33.6,30.45,North,355,2.7,4.9,71,0.00,,,0.00,VWS V14.00,2013-05-03 10:01:00,
2013-05-03 06:06:00,42.3,33.6,30.45,NNW,341,4.0,4.0,71,0.00,,,0.00,VWS V14.00,2013-05-03 10:06:00,
2013-05-03 06:11:00,42.3,33.6,30.45,NNW,342,3.6,5.4,71,0.00,,,0.00,VWS V14.00,2013-05-03 10:11:00,
2013-05-03 06:16:00,42.5,33.8,30.45,NNW,344,3.1,6.3,71,0.00,,,0.00,VWS V14.00,2013-05-03 10:16:00,
2013-05-03 06:21:00,42.5,34.1,30.45,NNW,347,5.4,5.4,72,0.00,,,0.00,VWS V14.00,2013-05-03 10:21:00,
2013-05-03 06:26:00,42.7,34.3,30.45,NNW,336,5.4,5.8,72,0.00,,,0.00,VWS V14.00,2013-05-03 10:26:00,
2013-05-03 06:31:00,42.9,34.5,30.45,North,352,5.4,6.3,72,0.00,,,0.00,VWS V14.00,2013-05-03 10:31:00,
2013-05-03 06:36:00,43.1,34.7,30.45,North,354,4.0,4.5,72,0.00,,,0.00,VWS V14.00,2013-05-03 10:36:00,
2013-05-03 06:41:00,43.2,34.8,30.45,NNW,331,3.1,6.3,72,0.00,,,0.00,VWS V14.00,2013-05-03 10:41:00,
2013-05-03 06:46:00,43.2,34.8,30.45,NNE,25,3.6,4.0,72,0.00,,,0.00,VWS V14.00,2013-05-03 10:46:00,
2013-05-03 06:51:00,43.4,34.7,30.45,NNW,336,6.3,6.3,71,0.00,,,0.00,VWS V14.00,2013-05-03 10:51:00,
2013-05-03 06:56:00,43.6,34.8,30.45,NNW,348,3.6,4.0,71,0.00,,,0.00,VWS V14.00,2013-05-03 10:56:00,
2013-05-03 07:01:00,43.8,35.0,30.45,NNW,342,6.3,8.3,71,0.00,,,0.00,VWS V14.00,2013-05-03 11:01:00,
2013-05-03 07:06:00,44.0,35.2,30.45,NNW,348,4.0,6.7,71,0.00,,,0.00,VWS V14.00,2013-05-03 11:06:00,
2013-05-03 07:11:00,44.5,35.7,30.45,North,349,2.7,3.6,71,0.00,,,0.00,VWS V14.00,2013-05-03 11:11:00,
2013-05-03 07:16:00,45.2,36.4,30.45,NE,36,3.6,3.6,71,0.00,,,0.00,VWS V14.00,2013-05-03 11:16:00,
2013-05-03 07:21:00,46.3,37.1,30.45,North,0,3.1,3.6,70,0.00,,,0.00,VWS V14.00,2013-05-03 11:21:00,
2013-05-03 07:26:00,47.4,35.8,30.47,NNW,336,3.1,4.9,64,0.00,,,0.00,VWS V14.00,2013-05-03 11:26:00,
2013-05-03 07:31:00,47.2,35.7,30.47,NE,55,5.4,6.3,64,0.00,,,0.00,VWS V14.00,2013-05-03 11:31:00,
2013-05-03 07:36:00,47.0,35.5,30.47,NNE,17,3.6,10.1,64,0.00,,,0.00,VWS V14.00,2013-05-03 11:36:00,
2013-05-03 07:41:00,46.8,35.7,30.47,North,6,2.7,5.4,65,0.00,,,0.00,VWS V14.00,2013-05-03 11:41:00,
2013-05-03 07:46:00,47.6,35.6,30.47,North,7,3.1,5.4,63,0.00,,,0.00,VWS V14.00,2013-05-03 11:46:00,
2013-05-03 07:51:00,48.5,36.5,30.47,North,358,3.1,4.9,63,0.00,,,0.00,VWS V14.00,2013-05-03 11:51:00,
2013-05-03 07:56:00,48.6,36.2,30.47,NNW,332,5.4,5.4,62,0.00,,,0.00,VWS V14.00,2013-05-03 11:56:00,
2013-05-03 08:01:00,48.6,35.8,30.47,NNW,327,6.3,6.3,61,0.00,,,0.00,VWS V14.00,2013-05-03 12:01:00,
2013-05-03 08:06:00,49.2,35.9,30.47,North,354,2.7,7.6,60,0.00,,,0.00,VWS V14.00,2013-05-03 12:06:00,
2013-05-03 08:11:00,48.8,36.0,30.47,NE,50,5.8,5.8,61,0.00,,,0.00,VWS V14.00,2013-05-03 12:11:00,
2013-05-03 08:16:00,48.8,36.0,30.47,NNW,338,4.0,5.4,61,0.00,,,0.00,VWS V14.00,2013-05-03 12:16:00,
2013-05-03 08:21:00,48.5,35.6,30.47,NNE,28,4.0,5.8,61,0.00,,,0.00,VWS V14.00,2013-05-03 12:21:00,
2013-05-03 08:26:00,48.3,35.5,30.47,North,349,3.6,6.3,61,0.00,,,0.00,VWS V14.00,2013-05-03 12:26:00,
2013-05-03 08:31:00,48.3,35.5,30.47,North,8,6.3,6.3,61,0.00,,,0.00,VWS V14.00,2013-05-03 12:31:00,
2013-05-03 08:36:00,48.3,35.5,30.47,NNW,339,6.3,7.6,61,0.00,,,0.00,VWS V14.00,2013-05-03 12:36:00,
2013-05-03 08:41:00,48.8,36.0,30.47,North,353,3.6,5.4,61,0.00,,,0.00,VWS V14.00,2013-05-03 12:41:00,
2013-05-03 08:46:00,49.2,35.9,30.47,NNE,12,2.7,4.9,60,0.00,,,0.00,VWS V14.00,2013-05-03 12:46:00,
2013-05-03 08:51:00,49.5,36.2,30.47,NW,323,3.6,5.8,60,0.00,,,0.00,VWS V14.00,2013-05-03 12:51:00,
2013-05-03 08:56:00,49.7,36.4,30.47,ENE,75,5.4,6.3,60,0.00,,,0.00,VWS V14.00,2013-05-03 12:56:00,
2013-05-03 09:01:00,50.1,36.3,30.47,NNW,347,8.3,8.7,59,0.00,,,0.00,VWS V14.00,2013-05-03 13:01:00,
2013-05-03 09:06:00,50.3,35.6,30.47,ENE,67,5.8,8.3,57,0.00,,,0.00,VWS V14.00,2013-05-03 13:06:00,
2013-05-03 09:11:00,50.8,35.7,30.47,NE,51,3.1,5.4,56,0.00,,,0.00,VWS V14.00,2013-05-03 13:11:00,
2013-05-03 09:16:00,50.6,34.6,30.47,NNE,32,2.7,5.8,54,0.00,,,0.00,VWS V14.00,2013-05-03 13:16:00,
2013-05-03 09:21:00,51.2,35.1,30.47,North,358,3.6,4.9,54,0.00,,,0.00,VWS V14.00,2013-05-03 13:21:00,
2013-05-03 09:26:00,52.1,35.9,30.45,NE,35,0.0,2.2,54,0.00,,,0.00,VWS V14.00,2013-05-03 13:26:00,
2013-05-03 09:31:00,52.2,36.1,30.45,NE,56,3.1,3.6,54,0.00,,,0.00,VWS V14.00,2013-05-03 13:31:00,
2013-05-03 09:36:00,52.8,36.1,30.45,NNW,345,3.1,3.1,53,0.00,,,0.00,VWS V14.00,2013-05-03 13:36:00,
2013-05-03 09:41:00,52.1,35.9,30.45,NE,48,7.6,8.1,54,0.00,,,0.00,VWS V14.00,2013-05-03 13:41:00,
2013-05-03 09:46:00,52.2,36.1,30.45,SSW,199,2.7,4.9,54,0.00,,,0.00,VWS V14.00,2013-05-03 13:46:00,
2013-05-03 09:51:00,52.1,35.9,30.45,NNE,31,7.6,8.1,54,0.00,,,0.00,VWS V14.00,2013-05-03 13:51:00,
2013-05-03 09:56:00,52.1,35.9,30.45,NNE,33,8.1,8.1,54,0.00,,,0.00,VWS V14.00,2013-05-03 13:56:00,
2013-05-03 10:01:00,52.1,35.9,30.45,East,93,3.6,6.3,54,0.00,,,0.00,VWS V14.00,2013-05-03 14:01:00,
2013-05-03 10:06:00,53.0,36.3,30.45,NE,51,7.2,7.2,53,0.00,,,0.00,VWS V14.00,2013-05-03 14:06:00,
2013-05-03 10:11:00,54.2,37.5,30.45,NNW,335,4.0,7.6,53,0.00,,,0.00,VWS V14.00,2013-05-03 14:11:00,
2013-05-03 10:16:00,54.8,38.0,30.45,NE,35,3.6,5.4,53,0.00,,,0.00,VWS V14.00,2013-05-03 14:16:00,
2013-05-03 10:21:00,53.9,37.1,30.45,NNW,344,4.0,4.0,53,0.00,,,0.00,VWS V14.00,2013-05-03 14:21:00,
2013-05-03 10:26:00,53.7,37.0,30.45,North,9,2.7,3.6,53,0.00,,,0.00,VWS V14.00,2013-05-03 14:26:00,
2013-05-03 10:31:00,54.0,37.3,30.45,NE,55,3.6,3.6,53,0.00,,,0.00,VWS V14.00,2013-05-03 14:31:00,
2013-05-03 10:36:00,54.2,36.5,30.45,ENE,71,3.6,8.1,51,0.00,,,0.00,VWS V14.00,2013-05-03 14:36:00,
2013-05-03 10:41:00,54.6,37.8,30.45,NE,44,4.0,6.3,53,0.00,,,0.00,VWS V14.00,2013-05-03 14:41:00,
2013-05-03 10:46:00,55.7,37.3,30.45,NE,48,8.1,10.1,50,0.00,,,0.00,VWS V14.00,2013-05-03 14:46:00,
2013-05-03 10:51:00,55.3,37.0,30.45,North,357,7.6,10.5,50,0.00,,,0.00,VWS V14.00,2013-05-03 14:51:00,
2013-05-03 10:56:00,54.9,36.7,30.45,NE,38,6.3,8.7,50,0.00,,,0.00,VWS V14.00,2013-05-03 14:56:00,
2013-05-03 11:01:00,55.5,37.2,30.45,NE,48,4.9,5.4,50,0.00,,,0.00,VWS V14.00,2013-05-03 15:01:00,
2013-05-03 11:06:00,56.0,37.7,30.45,NNW,345,4.0,6.3,50,0.00,,,0.00,VWS V14.00,2013-05-03 15:06:00,
2013-05-03 11:11:00,55.1,36.8,30.45,North,3,2.7,4.0,50,0.00,,,0.00,VWS V14.00,2013-05-03 15:11:00,
2013-05-03 11:16:00,57.5,39.0,30.45,ENE,62,11.0,11.0,50,0.00,,,0.00,VWS V14.00,2013-05-03 15:16:00,
2013-05-03 11:21:00,57.8,39.3,30.45,ENE,74,8.3,8.3,50,0.00,,,0.00,VWS V14.00,2013-05-03 15:21:00,
2013-05-03 11:26:00,58.0,39.5,30.45,NE,36,3.6,5.8,50,0.00,,,0.00,VWS V14.00,2013-05-03 15:26:00,
2013-05-03 11:31:00,58.2,39.7,30.45,NE,45,5.8,5.8,50,0.00,,,0.00,VWS V14.00,2013-05-03 15:31:00,
2013-05-03 11:36:00,57.5,39.0,30.45,ENE,59,4.9,4.9,50,0.00,,,0.00,VWS V14.00,2013-05-03 15:36:00,
2013-05-03 11:41:00,57.1,38.7,30.42,North,350,4.0,5.8,50,0.00,,,0.00,VWS V14.00,2013-05-03 15:41:00,
2013-05-03 11:46:00,56.6,38.2,30.42,NE,40,2.7,2.7,50,0.00,,,0.00,VWS V14.00,2013-05-03 15:46:00,
2013-05-03 11:51:00,56.9,38.5,30.42,WNW,291,0.0,0.0,50,0.00,,,0.00,VWS V14.00,2013-05-03 15:51:00,
2013-05-03 11:56:00,56.9,38.5,30.42,ENE,67,8.1,8.1,50,0.00,,,0.00,VWS V14.00,2013-05-03 15:56:00,
2013-05-03 12:01:00,56.9,38.5,30.42,NE,52,2.7,8.3,50,0.00,,,0.00,VWS V14.00,2013-05-03 16:01:00,
2013-05-03 12:06:00,57.3,38.8,30.42,ENE,61,4.0,9.2,50,0.00,,,0.00,VWS V14.00,2013-05-03 16:06:00,
2013-05-03 12:11:00,57.3,38.8,30.42,ENE,59,8.7,8.7,50,0.00,,,0.00,VWS V14.00,2013-05-03 16:11:00,
2013-05-03 12:16:00,57.5,39.0,30.42,NE,45,2.7,4.0,50,0.00,,,0.00,VWS V14.00,2013-05-03 16:16:00,
2013-05-03 12:21:00,57.3,38.8,30.42,NE,42,8.7,8.7,50,0.00,,,0.00,VWS V14.00,2013-05-03 16:21:00,
2013-05-03 12:26:00,56.9,38.5,30.42,ENE,59,10.1,12.3,50,0.00,,,0.00,VWS V14.00,2013-05-03 16:26:00,
2013-05-03 12:31:00,56.9,38.5,30.42,North,9,3.1,6.3,50,0.00,,,0.00,VWS V14.00,2013-05-03 16:31:00,
2013-05-03 12:36:00,57.5,39.0,30.42,NNE,25,4.9,4.9,50,0.00,,,0.00,VWS V14.00,2013-05-03 16:36:00,
2013-05-03 12:41:00,58.0,39.5,30.42,NE,35,3.1,3.6,50,0.00,,,0.00,VWS V14.00,2013-05-03 16:41:00,
2013-05-03 12:46:00,57.8,39.3,30.42,NE,49,4.0,6.3,50,0.00,,,0.00,VWS V14.00,2013-05-03 16:46:00,
2013-05-03 12:51:00,57.5,39.0,30.42,NE,54,3.6,11.0,50,0.00,,,0.00,VWS V14.00,2013-05-03 16:51:00,
2013-05-03 12:56:00,57.6,39.2,30.42,NE,42,7.6,7.6,50,0.00,,,0.00,VWS V14.00,2013-05-03 16:56:00,
2013-05-03 13:01:00,57.6,39.2,30.42,NE,35,6.3,6.3,50,0.00,,,0.00,VWS V14.00,2013-05-03 17:01:00,
2013-05-03 13:06:00,58.2,39.7,30.42,ENE,78,5.4,8.3,50,0.00,,,0.00,VWS V14.00,2013-05-03 17:06:00,
2013-05-03 13:11:00,58.7,40.2,30.39,East,94,3.6,7.2,50,0.00,,,0.00,VWS V14.00,2013-05-03 17:11:00,
2013-05-03 13:16:00,58.7,40.2,30.39,NNE,18,5.4,8.3,50,0.00,,,0.00,VWS V14.00,2013-05-03 17:16:00,
2013-05-03 13:21:00,58.7,40.2,30.39,NNE,25,3.6,5.4,50,0.00,,,0.00,VWS V14.00,2013-05-03 17:21:00,
2013-05-03 13:26:00,58.5,40.0,30.39,NNE,21,3.6,8.7,50,0.00,,,0.00,VWS V14.00,2013-05-03 17:26:00,
2013-05-03 13:31:00,58.2,39.7,30.39,ENE,57,8.1,8.1,50,0.00,,,0.00,VWS V14.00,2013-05-03 17:31:00,
2013-05-03 13:36:00,58.5,40.0,30.39,ESE,112,9.6,9.6,50,0.00,,,0.00,VWS V14.00,2013-05-03 17:36:00,
2013-05-03 13:41:00,58.5,40.0,30.39,NNE,26,10.1,10.1,50,0.00,,,0.00,VWS V14.00,2013-05-03 17:41:00,
2013-05-03 13:46:00,58.2,39.7,30.39,North,359,2.7,7.6,50,0.00,,,0.00,VWS V14.00,2013-05-03 17:46:00,
2013-05-03 13:51:00,58.4,39.8,30.39,East,96,6.3,6.3,50,0.00,,,0.00,VWS V14.00,2013-05-03 17:51:00,
2013-05-03 13:56:00,58.7,40.2,30.39,NE,41,8.3,10.1,50,0.00,,,0.00,VWS V14.00,2013-05-03 17:56:00,
2013-05-03 14:01:00,58.9,40.3,30.39,NNW,337,4.0,4.0,50,0.00,,,0.00,VWS V14.00,2013-05-03 18:01:00,
2013-05-03 14:06:00,59.1,40.5,30.39,NNE,25,6.3,6.3,50,0.00,,,0.00,VWS V14.00,2013-05-03 18:06:00,
2013-05-03 14:11:00,58.9,40.3,30.39,NE,52,2.2,4.0,50,0.00,,,0.00,VWS V14.00,2013-05-03 18:11:00,
2013-05-03 14:16:00,58.7,40.2,30.39,NNE,32,5.4,5.8,50,0.00,,,0.00,VWS V14.00,2013-05-03 18:16:00,
2013-05-03 14:21:00,59.1,40.5,30.39,NE,51,4.0,6.3,50,0.00,,,0.00,VWS V14.00,2013-05-03 18:21:00,
2013-05-03 14:26:00,58.9,40.3,30.39,NE,40,5.4,5.8,50,0.00,,,0.00,VWS V14.00,2013-05-03 18:26:00,
2013-05-03 14:31:00,59.4,40.8,30.39,NNW,327,3.6,5.4,50,0.00,,,0.00,VWS V14.00,2013-05-03 18:31:00,
2013-05-03 14:36:00,58.9,40.3,30.39,NNE,33,8.1,8.1,50,0.00,,,0.00,VWS V14.00,2013-05-03 18:36:00,
2013-05-03 14:41:00,59.3,40.6,30.39,ENE,57,2.7,4.0,50,0.00,,,0.00,VWS V14.00,2013-05-03 18:41:00,
2013-05-03 14:46:00,59.4,40.8,30.39,NE,40,5.8,5.8,50,0.00,,,0.00,VWS V14.00,2013-05-03 18:46:00,
2013-05-03 14:51:00,60.0,40.8,30.39,NNE,20,4.0,7.6,49,0.00,,,0.00,VWS V14.00,2013-05-03 18:51:00,
2013-05-03 14:56:00,60.0,40.8,30.39,NNW,345,3.1,8.1,49,0.00,,,0.00,VWS V14.00,2013-05-03 18:56:00,
2013-05-03 15:01:00,60.0,40.8,30.39,NNW,327,4.0,6.3,49,0.00,,,0.00,VWS V14.00,2013-05-03 19:01:00,
2013-05-03 15:06:00,60.0,40.8,30.39,NNW,333,2.7,4.9,49,0.00,,,0.00,VWS V14.00,2013-05-03 19:06:00,
2013-05-03 15:11:00,60.0,40.8,30.39,NE,45,3.1,4.0,49,0.00,,,0.00,VWS V14.00,2013-05-03 19:11:00,
2013-05-03 15:16:00,60.7,41.5,30.39,NE,42,5.4,8.7,49,0.00,,,0.00,VWS V14.00,2013-05-03 19:16:00,
2013-05-03 15:21:00,60.7,41.5,30.39,North,351,4.0,5.8,49,0.00,,,0.00,VWS V14.00,2013-05-03 19:21:00,
2013-05-03 15:26:00,60.2,41.0,30.36,East,87,5.8,5.8,49,0.00,,,0.00,VWS V14.00,2013-05-03 19:26:00,
2013-05-03 15:31:00,61.6,42.3,30.36,NNE,30,3.6,4.9,49,0.00,,,0.00,VWS V14.00,2013-05-03 19:31:00,
2013-05-03 15:36:00,62.3,42.9,30.36,NNE,33,4.9,5.4,49,0.00,,,0.00,VWS V14.00,2013-05-03 19:36:00,
2013-05-03 15:41:00,63.4,43.4,30.36,NE,47,3.1,3.1,48,0.00,,,0.00,VWS V14.00,2013-05-03 19:41:00,
2013-05-03 15:46:00,62.3,42.9,30.36,ENE,67,5.4,5.8,49,0.00,,,0.00,VWS V14.00,2013-05-03 19:46:00,
2013-05-03 15:51:00,62.0,42.6,30.36,East,94,2.7,3.6,49,0.00,,,0.00,VWS V14.00,2013-05-03 19:51:00,
2013-05-03 15:56:00,61.6,42.3,30.36,NNE,28,3.6,7.6,49,0.00,,,0.00,VWS V14.00,2013-05-03 19:56:00,
2013-05-03 16:01:00,60.9,41.6,30.36,North,6,2.2,6.3,49,0.00,,,0.00,VWS V14.00,2013-05-03 20:01:00,
2013-05-03 16:06:00,60.5,41.3,30.36,ENE,57,5.4,5.4,49,0.00,,,0.00,VWS V14.00,2013-05-03 20:06:00,
2013-05-03 16:11:00,60.5,41.3,30.36,North,350,5.8,9.2,49,0.00,,,0.00,VWS V14.00,2013-05-03 20:11:00,
2013-05-03 16:16:00,60.3,41.1,30.36,ENE,61,4.9,4.9,49,0.00,,,0.00,VWS V14.00,2013-05-03 20:16:00,
2013-05-03 16:21:00,60.9,41.6,30.36,NNW,333,3.1,4.5,49,0.00,,,0.00,VWS V14.00,2013-05-03 20:21:00,
2013-05-03 16:26:00,60.3,41.1,30.36,North,351,5.8,5.8,49,0.00,,,0.00,VWS V14.00,2013-05-03 20:26:00,
2013-05-03 16:31:00,60.7,41.5,30.36,NE,40,5.8,5.8,49,0.00,,,0.00,VWS V14.00,2013-05-03 20:31:00,
2013-05-03 16:36:00,60.7,41.5,30.36,ENE,70,6.3,8.7,49,0.00,,,0.00,VWS V14.00,2013-05-03 20:36:00,
2013-05-03 16:41:00,60.5,41.3,30.36,NNE,30,3.6,7.6,49,0.00,,,0.00,VWS V14.00,2013-05-03 20:41:00,
2013-05-03 16:46:00,60.7,41.5,30.36,North,352,4.9,6.3,49,0.00,,,0.00,VWS V14.00,2013-05-03 20:46:00,
2013-05-03 16:51:00,61.1,41.8,30.36,ENE,58,6.3,6.3,49,0.00,,,0.00,VWS V14.00,2013-05-03 20:51:00,
2013-05-03 16:56:00,61.2,41.9,30.36,North,9,4.0,5.8,49,0.00,,,0.00,VWS V14.00,2013-05-03 20:56:00,
2013-05-03 17:01:00,61.6,42.3,30.36,ENE,60,3.6,5.4,49,0.00,,,0.00,VWS V14.00,2013-05-03 21:01:00,
2013-05-03 17:06:00,61.4,42.1,30.36,NE,42,6.3,6.3,49,0.00,,,0.00,VWS V14.00,2013-05-03 21:06:00,
2013-05-03 17:11:00,62.0,42.6,30.36,NNE,31,3.6,3.6,49,0.00,,,0.00,VWS V14.00,2013-05-03 21:11:00,
2013-05-03 17:16:00,62.7,43.3,30.36,ENE,64,3.6,5.8,49,0.00,,,0.00,VWS V14.00,2013-05-03 21:16:00,
2013-05-03 17:21:00,62.1,42.8,30.36,NNW,337,3.1,6.3,49,0.00,,,0.00,VWS V14.00,2013-05-03 21:21:00,
2013-05-03 17:26:00,61.2,41.9,30.36,ENE,64,6.3,6.3,49,0.00,,,0.00,VWS V14.00,2013-05-03 21:26:00,
2013-05-03 17:31:00,61.2,41.9,30.36,East,84,3.6,6.3,49,0.00,,,0.00,VWS V14.00,2013-05-03 21:31:00,
2013-05-03 17:36:00,62.0,42.6,30.36,NNE,15,3.6,4.0,49,0.00,,,0.00,VWS V14.00,2013-05-03 21:36:00,
2013-05-03 17:41:00,61.8,42.4,30.36,NE,41,3.6,4.9,49,0.00,,,0.00,VWS V14.00,2013-05-03 21:41:00,
2013-05-03 17:46:00,63.8,43.7,30.36,ENE,57,3.6,4.0,48,0.00,,,0.00,VWS V14.00,2013-05-03 21:46:00,
2013-05-03 17:51:00,62.9,43.4,30.36,NE,46,4.0,4.9,49,0.00,,,0.00,VWS V14.00,2013-05-03 21:51:00,
2013-05-03 17:56:00,62.5,43.1,30.36,NE,52,8.1,9.6,49,0.00,,,0.00,VWS V14.00,2013-05-03 21:56:00,
2013-05-03 18:01:00,62.1,42.8,30.36,NE,48,3.1,6.3,49,0.00,,,0.00,VWS V14.00,2013-05-03 22:01:00,
2013-05-03 18:06:00,61.6,42.3,30.36,NE,34,4.0,4.9,49,0.00,,,0.00,VWS V14.00,2013-05-03 22:06:00,
2013-05-03 18:11:00,62.5,43.1,30.33,NE,56,6.3,8.7,49,0.00,,,0.00,VWS V14.00,2013-05-03 22:11:00,
2013-05-03 18:16:00,62.9,43.4,30.33,NNE,29,6.3,7.6,49,0.00,,,0.00,VWS V14.00,2013-05-03 22:16:00,
2013-05-03 18:21:00,61.6,42.3,30.33,NE,56,5.4,7.2,49,0.00,,,0.00,VWS V14.00,2013-05-03 22:21:00,
2013-05-03 18:26:00,61.4,42.1,30.33,NNE,14,3.1,6.3,49,0.00,,,0.00,VWS V14.00,2013-05-03 22:26:00,
2013-05-03 18:31:00,61.8,42.4,30.33,East,90,3.6,6.3,49,0.00,,,0.00,VWS V14.00,2013-05-03 22:31:00,
2013-05-03 18:36:00,61.4,42.1,30.33,ENE,69,3.1,4.9,49,0.00,,,0.00,VWS V14.00,2013-05-03 22:36:00,
2013-05-03 18:41:00,60.5,41.3,30.33,NE,45,2.7,4.9,49,0.00,,,0.00,VWS V14.00,2013-05-03 22:41:00,
2013-05-03 18:46:00,60.0,40.8,30.33,East,96,3.1,5.4,49,0.00,,,0.00,VWS V14.00,2013-05-03 22:46:00,
2013-05-03 18:51:00,59.1,40.5,30.33,NE,50,4.0,5.4,50,0.00,,,0.00,VWS V14.00,2013-05-03 22:51:00,
2013-05-03 18:56:00,58.7,40.2,30.36,NE,40,0.0,4.0,50,0.00,,,0.00,VWS V14.00,2013-05-03 22:56:00,
2013-05-03 19:01:00,58.0,40.5,30.36,NE,42,0.0,3.6,52,0.00,,,0.00,VWS V14.00,2013-05-03 23:01:00,
2013-05-03 19:06:00,57.5,40.0,30.36,NE,56,2.2,6.3,52,0.00,,,0.00,VWS V14.00,2013-05-03 23:06:00,
2013-05-03 19:11:00,57.3,39.8,30.36,NE,41,5.4,6.3,52,0.00,,,0.00,VWS V14.00,2013-05-03 23:11:00,
2013-05-03 19:16:00,57.1,39.7,30.36,NE,42,4.9,4.9,52,0.00,,,0.00,VWS V14.00,2013-05-03 23:16:00,
2013-05-03 19:21:00,56.9,40.9,30.36,NE,46,3.6,3.6,55,0.00,,,0.00,VWS V14.00,2013-05-03 23:21:00,
2013-05-03 19:26:00,56.6,40.6,30.36,ENE,70,2.7,4.9,55,0.00,,,0.00,VWS V14.00,2013-05-03 23:26:00,
2013-05-03 19:31:00,56.4,40.4,30.36,NE,34,0.0,5.8,55,0.00,,,0.00,VWS V14.00,2013-05-03 23:31:00,
2013-05-03 19:36:00,55.8,39.9,30.36,NE,48,2.7,4.0,55,0.00,,,0.00,VWS V14.00,2013-05-03 23:36:00,
2013-05-03 19:41:00,55.5,41.0,30.36,ENE,59,2.7,2.7,58,0.00,,,0.00,VWS V14.00,2013-05-03 23:41:00,
2013-05-03 19:46:00,55.1,40.6,30.36,ENE,57,3.6,4.0,58,0.00,,,0.00,VWS V14.00,2013-05-03 23:46:00,
2013-05-03 19:51:00,54.9,40.5,30.36,NE,49,0.0,0.0,58,0.00,,,0.00,VWS V14.00,2013-05-03 23:51:00,
2013-05-03 19:56:00,54.6,40.1,30.36,NE,44,2.2,2.2,58,0.00,,,0.00,VWS V14.00,2013-05-03 23:56:00,
2013-05-03 20:01:00,54.2,40.2,30.36,NE,45,4.9,5.4,59,0.00,,,0.00,VWS V14.00,2013-05-04 00:01:00,
2013-05-03 20:06:00,54.0,40.0,30.36,ENE,76,3.6,3.6,59,0.00,,,0.00,VWS V14.00,2013-05-04 00:06:00,
2013-05-03 20:11:00,53.7,39.7,30.36,ENE,77,2.7,3.6,59,0.00,,,0.00,VWS V14.00,2013-05-04 00:11:00,
2013-05-03 20:16:00,53.5,39.5,30.36,NE,52,3.1,3.6,59,0.00,,,0.00,VWS V14.00,2013-05-04 00:16:00,
2013-05-03 20:21:00,53.1,39.2,30.36,NE,38,2.7,3.1,59,0.00,,,0.00,VWS V14.00,2013-05-04 00:21:00,
2013-05-03 20:26:00,52.8,38.9,30.36,NE,43,2.7,3.1,59,0.00,,,0.00,VWS V14.00,2013-05-04 00:26:00,
2013-05-03 20:31:00,52.4,39.0,30.36,ESE,109,2.2,4.0,60,0.00,,,0.00,VWS V14.00,2013-05-04 00:31:00,
2013-05-03 20:36:00,52.1,38.6,30.36,NNE,18,5.8,5.8,60,0.00,,,0.00,VWS V14.00,2013-05-04 00:36:00,
2013-05-03 20:41:00,51.7,38.3,30.39,ENE,64,4.0,4.0,60,0.00,,,0.00,VWS V14.00,2013-05-04 00:41:00,
2013-05-03 20:46:00,51.5,38.1,30.39,SE,125,0.0,2.7,60,0.00,,,0.00,VWS V14.00,2013-05-04 00:46:00,
2013-05-03 20:51:00,51.0,37.6,30.39,NNE,28,2.2,4.9,60,0.00,,,0.00,VWS V14.00,2013-05-04 00:51:00,
2013-05-03 20:56:00,50.8,37.4,30.39,NE,55,0.0,0.0,60,0.00,,,0.00,VWS V14.00,2013-05-04 00:56:00,
2013-05-03 21:01:00,50.4,37.1,30.39,NE,39,0.0,0.0,60,0.00,,,0.00,VWS V14.00,2013-05-04 01:01:00,
2013-05-03 21:06:00,50.3,36.9,30.39,NE,39,0.0,0.0,60,0.00,,,0.00,VWS V14.00,2013-05-04 01:06:00,
2013-05-03 21:11:00,49.9,36.6,30.39,NE,39,2.2,2.2,60,0.00,,,0.00,VWS V14.00,2013-05-04 01:11:00,
2013-05-03 21:16:00,49.5,36.2,30.39,NE,39,0.0,0.0,60,0.00,,,0.00,VWS V14.00,2013-05-04 01:16:00,
2013-05-03 21:21:00,49.4,36.5,30.39,NE,39,0.0,0.0,61,0.00,,,0.00,VWS V14.00,2013-05-04 01:21:00,
2013-05-03 21:26:00,49.2,36.3,30.39,NE,39,0.0,0.0,61,0.00,,,0.00,VWS V14.00,2013-05-04 01:26:00,
2013-05-03 21:31:00,49.2,36.3,30.39,NE,39,0.0,0.0,61,0.00,,,0.00,VWS V14.00,2013-05-04 01:31:00,
2013-05-03 21:36:00,49.0,36.6,30.39,NE,39,0.0,0.0,62,0.00,,,0.00,VWS V14.00,2013-05-04 01:36:00,
2013-05-03 21:41:00,48.6,36.2,30.36,NE,42,0.0,0.0,62,0.00,,,0.00,VWS V14.00,2013-05-04 01:41:00,
2013-05-03 21:46:00,48.5,36.0,30.36,NE,42,0.0,0.0,62,0.00,,,0.00,VWS V14.00,2013-05-04 01:46:00,
2013-05-03 21:51:00,48.3,35.9,30.36,ENE,59,0.0,0.0,62,0.00,,,0.00,VWS V14.00,2013-05-04 01:51:00,
2013-05-03 21:55:00,48.1,35.7,30.36,ENE,59,0.0,0.0,62,0.00,,,0.00,VWS V14.00,2013-05-04 01:55:00,
2013-05-03 22:00:00,47.9,35.5,30.36,ENE,59,0.0,0.0,62,0.00,,,0.00,VWS V14.00,2013-05-04 02:00:00,
2013-05-03 22:05:00,47.7,36.2,30.36,ENE,59,0.0,0.0,64,0.00,,,0.00,VWS V14.00,2013-05-04 02:05:00,
2013-05-03 22:10:00,47.7,35.8,30.36,ENE,59,0.0,0.0,63,0.00,,,0.00,VWS V14.00,2013-05-04 02:10:00,
2013-05-03 22:15:00,47.6,35.6,30.36,ENE,59,0.0,0.0,63,0.00,,,0.00,VWS V14.00,2013-05-04 02:15:00,
2013-05-03 22:20:00,47.4,35.0,30.36,ENE,59,0.0,0.0,62,0.00,,,0.00,VWS V14.00,2013-05-04 02:20:00,
2013-05-03 22:25:00,47.2,35.3,30.36,ENE,59,0.0,0.0,63,0.00,,,0.00,VWS V14.00,2013-05-04 02:25:00,
2013-05-03 22:30:00,47.0,35.5,30.36,ENE,59,0.0,0.0,64,0.00,,,0.00,VWS V14.00,2013-05-04 02:30:00,
2013-05-03 22:35:00,46.8,35.3,30.36,ENE,59,0.0,0.0,64,0.00,,,0.00,VWS V14.00,2013-05-04 02:35:00,
2013-05-03 22:40:00,46.7,35.5,30.36,ENE,59,0.0,0.0,65,0.00,,,0.00,VWS V14.00,2013-05-04 02:40:00,
2013-05-03 22:45:00,46.5,35.8,30.36,ENE,59,0.0,0.0,66,0.00,,,0.00,VWS V14.00,2013-05-04 02:45:00,
2013-05-03 22:50:00,46.3,35.6,30.36,ENE,59,0.0,0.0,66,0.00,,,0.00,VWS V14.00,2013-05-04 02:50:00,
2013-05-03 22:55:00,46.1,35.4,30.36,ENE,59,0.0,0.0,66,0.00,,,0.00,VWS V14.00,2013-05-04 02:55:00,
2013-05-03 23:00:00,45.9,35.2,30.36,ENE,59,0.0,0.0,66,0.00,,,0.00,VWS V14.00,2013-05-04 03:00:00,
2013-05-03 23:05:00,45.8,35.4,30.36,ENE,59,0.0,0.0,67,0.00,,,0.00,VWS V14.00,2013-05-04 03:05:00,
2013-05-03 23:10:00,45.8,35.4,30.36,ENE,59,0.0,0.0,67,0.00,,,0.00,VWS V14.00,2013-05-04 03:10:00,
2013-05-03 23:15:00,45.6,35.6,30.36,ENE,59,0.0,0.0,68,0.00,,,0.00,VWS V14.00,2013-05-04 03:15:00,
2013-05-03 23:20:00,45.6,35.6,30.36,ENE,59,0.0,0.0,68,0.00,,,0.00,VWS V14.00,2013-05-04 03:20:00,
2013-05-03 23:25:00,45.4,35.5,30.36,ENE,59,0.0,0.0,68,0.00,,,0.00,VWS V14.00,2013-05-04 03:25:00,
2013-05-03 23:30:00,45.2,36.0,30.36,ENE,59,0.0,0.0,70,0.00,,,0.00,VWS V14.00,2013-05-04 03:30:00,
2013-05-03 23:35:00,45.0,36.2,30.36,ENE,59,0.0,0.0,71,0.00,,,0.00,VWS V14.00,2013-05-04 03:35:00,
2013-05-03 23:40:00,44.9,36.0,30.36,ENE,59,0.0,0.0,71,0.00,,,0.00,VWS V14.00,2013-05-04 03:40:00,
2013-05-03 23:45:00,44.9,36.0,30.36,ENE,59,0.0,0.0,71,0.00,,,0.00,VWS V14.00,2013-05-04 03:45:00,
2013-05-03 23:50:00,45.0,36.6,30.36,ENE,59,0.0,0.0,72,0.00,,,0.00,VWS V14.00,2013-05-04 03:50:00,
2013-05-03 23:55:00,45.2,36.7,30.36,ENE,59,0.0,0.0,72,0.00,,,0.00,VWS V14.00,2013-05-04 03:55:00,